Time;durP1;ratioP1;P1;durP2;ratioP2;P2;SDS_P1;SDS_P2;PMS_P1;PMS_P2;Temp;Humidity;BMP_temperature;BMP_pressure;BME280_temperature;BME280_humidity;BME280_pressure;Samples;Min_cycle;Max_cycle;Signal;HPM_P1;HPM_P2
2022/10/28 00:01:30;;;;;;;8.85;3.40;;;;;;;;;;5076083;28;20045;-88
2022/10/28 00:03:58;;;;;;;5.72;3.53;;;;;;;;;;5076804;28;20045;-87
2022/10/28 00:06:27;;;;;;;6.47;3.20;;;;;;;;;;5076411;28;20079;-88
2022/10/28 00:08:55;;;;;;;8.25;3.15;;;;;;;;;;5075978;28;20131;-88
2022/10/28 00:11:24;;;;;;;10.25;3.40;;;;;;;;;;5075781;28;20076;-86
2022/10/28 00:13:55;;;;;;;6.40;3.17;;;;;;;;;;5076373;28;20058;-88
2022/10/28 00:16:24;;;;;;;10.95;3.42;;;;;;;;;;5076892;28;20048;-89
2022/10/28 00:18:52;;;;;;;7.28;3.28;;;;;;;;;;5075777;28;20055;-86
2022/10/28 00:21:22;;;;;;;11.13;3.28;;;;;;;;;;5075853;28;20040;-86
2022/10/28 00:23:49;;;;;;;9.85;3.22;;;;;;;;;;5075773;28;20140;-86
2022/10/28 00:26:20;;;;;;;7.40;2.83;;;;;;;;;;5075586;28;20131;-88
2022/10/28 00:28:51;;;;;;;9.73;3.10;;;;;;;;;;5075455;28;20054;-87
2022/10/28 00:31:19;;;;;;;7.25;3.50;;;;;;;;;;5075431;28;20062;-88
2022/10/28 00:33:46;;;;;;;5.45;3.00;;;;;;;;;;5075589;28;20044;-88
2022/10/28 00:36:18;;;;;;;8.35;3.45;;;;;;;;;;5075345;28;20056;-88
2022/10/28 00:38:46;;;;;;;10.07;3.58;;;;;;;;;;5075403;28;20437;-89
2022/10/28 00:41:17;;;;;;;4.63;3.05;;;;;;;;;;5075151;28;20052;-89
2022/10/28 00:43:49;;;;;;;6.20;2.90;;;;;;;;;;5075252;28;20049;-86
2022/10/28 00:46:17;;;;;;;4.20;3.37;;;;;;;;;;5075142;28;20149;-89
2022/10/28 00:48:48;;;;;;;7.32;3.05;;;;;;;;;;5074658;28;20052;-89
2022/10/28 00:51:16;;;;;;;5.97;3.30;;;;;;;;;;5074451;28;20405;-89
2022/10/28 00:53:47;;;;;;;4.32;2.60;;;;;;;;;;5075089;28;20052;-89
2022/10/28 00:56:15;;;;;;;9.68;3.85;;;;;;;;;;5075006;28;20048;-87
2022/10/28 00:58:43;;;;;;;7.13;3.00;;;;;;;;;;5075014;28;20048;-85
2022/10/28 01:01:10;;;;;;;11.35;3.40;;;;;;;;;;5075124;28;20048;-86
2022/10/28 01:03:37;;;;;;;5.35;2.97;;;;;;;;;;5075416;28;20041;-87
2022/10/28 01:06:07;;;;;;;8.05;3.28;;;;;;;;;;5074838;28;20049;-88
2022/10/28 01:08:35;;;;;;;6.13;3.15;;;;;;;;;;5072840;28;20520;-85
2022/10/28 01:11:08;;;;;;;9.95;3.00;;;;;;;;;;5054295;28;20127;-87
2022/10/28 01:13:43;;;;;;;9.43;3.47;;;;;;;;;;5054795;28;20485;-87
2022/10/28 01:16:10;;;;;;;6.00;3.00;;;;;;;;;;5054433;28;20128;-88
2022/10/28 01:18:44;;;;;;;9.15;3.10;;;;;;;;;;5054498;28;20089;-88
2022/10/28 01:21:28;;;;;;;5.68;3.35;;;;;;;;;;5054326;28;20103;-87
2022/10/28 01:23:58;;;;;;;6.93;3.22;;;;;;;;;;5054514;28;20128;-88
2022/10/28 01:26:49;;;;;;;5.47;3.05;;;;;;;;;;5054046;28;20049;-88
2022/10/28 01:29:35;;;;;;;5.78;3.33;;;;;;;;;;5048816;28;20049;-88
2022/10/28 01:32:07;;;;;;;5.40;3.35;;;;;;;;;;5055301;28;20061;-87
2022/10/28 01:34:53;;;;;;;9.60;3.55;;;;;;;;;;5054044;28;20480;-89
2022/10/28 01:37:32;;;;;;;9.10;3.38;;;;;;;;;;5054060;28;20081;-88
2022/10/28 01:40:18;;;;;;;8.20;3.30;;;;;;;;;;5054150;28;20057;-87
2022/10/28 01:42:51;;;;;;;9.15;3.30;;;;;;;;;;5054023;28;20096;-87
2022/10/28 01:45:24;;;;;;;7.07;3.55;;;;;;;;;;5054052;28;20487;-89
2022/10/28 01:47:58;;;;;;;7.70;3.55;;;;;;;;;;5053994;28;20128;-88
2022/10/28 01:50:29;;;;;;;11.20;3.60;;;;;;;;;;5054014;28;20061;-88
2022/10/28 01:52:57;;;;;;;5.97;3.30;;;;;;;;;;5053626;28;20132;-87
2022/10/28 01:55:29;;;;;;;9.18;3.55;;;;;;;;;;5053810;28;20395;-88
2022/10/28 01:57:58;;;;;;;7.93;2.90;;;;;;;;;;5053941;28;20490;-87
2022/10/28 02:00:25;;;;;;;6.15;3.10;;;;;;;;;;5053749;28;20049;-88
2022/10/28 02:02:55;;;;;;;7.13;3.03;;;;;;;;;;5053451;28;20049;-88
2022/10/28 02:05:40;;;;;;;13.82;3.38;;;;;;;;;;5053328;28;20061;-88
2022/10/28 02:08:28;;;;;;;24.13;3.40;;;;;;;;;;5053569;28;20064;-88
2022/10/28 02:11:01;;;;;;;9.82;3.97;;;;;;;;;;5033428;28;20045;-88
2022/10/28 02:13:37;;;;;;;7.78;3.80;;;;;;;;;;5053574;28;20049;-88
2022/10/28 02:16:24;;;;;;;8.50;3.33;;;;;;;;;;5053267;28;20051;-88
2022/10/28 02:19:14;;;;;;;6.65;3.70;;;;;;;;;;5053590;28;20417;-88
2022/10/28 02:21:48;;;;;;;10.05;4.22;;;;;;;;;;5048331;28;20051;-88
2022/10/28 02:24:15;;;;;;;;;;;;;;;;;;5053643;28;20055;-89
2022/10/28 02:26:45;;;;;;;8.98;3.72;;;;;;;;;;5053600;28;20019;-88
2022/10/28 02:29:19;;;;;;;6.55;3.65;;;;;;;;;;5053209;28;20048;-88
2022/10/28 02:31:51;;;;;;;10.13;3.95;;;;;;;;;;5053139;28;20045;-88
2022/10/28 02:34:25;;;;;;;8.18;4.22;;;;;;;;;;5053263;28;20115;-88
2022/10/28 02:36:54;;;;;;;11.27;4.13;;;;;;;;;;5053124;28;20041;-87
2022/10/28 02:39:23;;;;;;;10.73;4.35;;;;;;;;;;5053416;28;20056;-87
2022/10/28 02:41:53;;;;;;;10.80;3.83;;;;;;;;;;5053148;28;20055;-88
2022/10/28 02:44:23;;;;;;;10.27;3.95;;;;;;;;;;5052834;28;20048;-87
2022/10/28 02:46:51;;;;;;;11.52;4.00;;;;;;;;;;5054484;28;20470;-89
2022/10/28 02:49:18;;;;;;;8.95;4.00;;;;;;;;;;5053602;28;20048;-88
2022/10/28 02:51:54;;;;;;;16.35;4.28;;;;;;;;;;5053128;28;20053;-87
2022/10/28 02:54:24;;;;;;;7.50;4.50;;;;;;;;;;5052989;28;20497;-88
2022/10/28 02:56:53;;;;;;;8.50;4.03;;;;;;;;;;5052616;28;20049;-88
2022/10/28 02:59:20;;;;;;;7.55;4.93;;;;;;;;;;5052879;28;20071;-88
2022/10/28 03:01:48;;;;;;;9.35;5.43;;;;;;;;;;5052839;28;20523;-88
2022/10/28 03:04:15;;;;;;;10.70;6.55;;;;;;;;;;5052405;28;20049;-87
2022/10/28 03:06:42;;;;;;;11.40;5.80;;;;;;;;;;5053896;28;20049;-89
2022/10/28 03:09:10;;;;;;;11.45;5.45;;;;;;;;;;5052042;28;20049;-88
2022/10/28 03:11:37;;;;;;;12.10;6.00;;;;;;;;;;5052730;28;20128;-88
2022/10/28 03:14:04;;;;;;;14.65;4.97;;;;;;;;;;5052387;28;20053;-88
2022/10/28 03:16:31;;;;;;;17.92;5.50;;;;;;;;;;5052176;28;20060;-87
2022/10/28 03:18:59;;;;;;;8.48;4.22;;;;;;;;;;5052619;28;20049;-88
2022/10/28 03:21:26;;;;;;;9.48;4.32;;;;;;;;;;5052682;28;20056;-88
2022/10/28 03:23:54;;;;;;;10.57;4.22;;;;;;;;;;5052479;28;20063;-88
2022/10/28 03:26:21;;;;;;;9.30;4.55;;;;;;;;;;5052362;28;20126;-86
2022/10/28 03:28:48;;;;;;;8.38;3.67;;;;;;;;;;5052226;28;20049;-87
2022/10/28 03:31:16;;;;;;;8.43;4.00;;;;;;;;;;5052514;28;20045;-87
2022/10/28 03:33:43;;;;;;;5.35;4.03;;;;;;;;;;5052554;28;20502;-88
2022/10/28 03:36:10;;;;;;;7.85;4.05;;;;;;;;;;5052323;28;20056;-88
2022/10/28 03:38:37;;;;;;;8.73;3.97;;;;;;;;;;5052668;28;20230;-88
2022/10/28 03:41:05;;;;;;;6.72;3.50;;;;;;;;;;5052575;28;20041;-88
2022/10/28 03:43:32;;;;;;;7.18;3.65;;;;;;;;;;5052766;28;20049;-88
2022/10/28 03:46:05;;;;;;;12.07;4.18;;;;;;;;;;5052464;28;20045;-89
2022/10/28 03:48:33;;;;;;;8.27;3.78;;;;;;;;;;5052069;28;20059;-89
2022/10/28 03:51:00;;;;;;;8.43;3.53;;;;;;;;;;5052005;28;20045;-88
2022/10/28 03:53:27;;;;;;;9.93;3.50;;;;;;;;;;5052196;28;20057;-88
2022/10/28 03:55:58;;;;;;;6.55;4.05;;;;;;;;;;5052087;28;20045;-89
2022/10/28 03:58:26;;;;;;;7.63;3.33;;;;;;;;;;5052207;28;20040;-88
2022/10/28 04:01:06;;;;;;;5.97;3.75;;;;;;;;;;5054060;28;20057;-88
2022/10/28 04:03:33;;;;;;;4.57;3.53;;;;;;;;;;5069379;28;20064;-88
2022/10/28 04:06:00;;;;;;;10.85;3.85;;;;;;;;;;5054109;28;20060;-88
2022/10/28 04:08:28;;;;;;;4.80;3.67;;;;;;;;;;5052086;28;20060;-89
2022/10/28 04:10:55;;;;;;;10.55;4.10;;;;;;;;;;5052304;28;20056;-86
2022/10/28 04:13:22;;;;;;;12.25;4.60;;;;;;;;;;5051818;28;20068;-88
2022/10/28 04:15:50;;;;;;;6.30;4.47;;;;;;;;;;5051602;28;20041;-88
2022/10/28 04:18:17;;;;;;;6.90;4.20;;;;;;;;;;5051759;28;20059;-88
2022/10/28 04:20:45;;;;;;;9.30;4.53;;;;;;;;;;5052125;28;20508;-87
2022/10/28 04:23:14;;;;;;;9.20;4.53;;;;;;;;;;5052328;28;20070;-89
2022/10/28 04:25:42;;;;;;;7.53;4.18;;;;;;;;;;5052541;28;20055;-87
2022/10/28 04:28:09;;;;;;;9.85;4.47;;;;;;;;;;5055461;28;20539;-88
2022/10/28 04:30:42;;;;;;;7.05;3.92;;;;;;;;;;5055155;28;20045;-87
2022/10/28 04:33:11;;;;;;;9.50;4.78;;;;;;;;;;5055395;28;20416;-89
2022/10/28 04:35:41;;;;;;;12.55;4.20;;;;;;;;;;5055602;28;20071;-87
2022/10/28 04:38:09;;;;;;;9.32;3.97;;;;;;;;;;5055395;28;20076;-87
2022/10/28 04:40:37;;;;;;;10.13;4.38;;;;;;;;;;5055405;28;20049;-87
2022/10/28 04:43:04;;;;;;;10.57;4.15;;;;;;;;;;5055055;28;20102;-87
2022/10/28 04:45:38;;;;;;;9.02;4.50;;;;;;;;;;5055118;28;20049;-87
2022/10/28 04:48:11;;;;;;;6.45;4.13;;;;;;;;;;5054969;28;20055;-87
2022/10/28 04:50:38;;;;;;;9.82;4.47;;;;;;;;;;5053330;28;20052;-88
2022/10/28 04:53:06;;;;;;;7.93;4.35;;;;;;;;;;5054664;28;20045;-88
2022/10/28 04:55:33;;;;;;;14.57;4.53;;;;;;;;;;5054550;28;20072;-87
2022/10/28 04:58:03;;;;;;;9.30;3.95;;;;;;;;;;5054795;28;20064;-87
2022/10/28 05:00:31;;;;;;;9.98;3.97;;;;;;;;;;5054329;28;20136;-88
2022/10/28 05:03:03;;;;;;;5.72;3.70;;;;;;;;;;5054864;28;20568;-87
2022/10/28 05:05:31;;;;;;;10.35;3.80;;;;;;;;;;5054232;28;20481;-87
2022/10/28 05:07:58;;;;;;;11.52;4.57;;;;;;;;;;5054585;28;20049;-89
2022/10/28 05:10:33;;;;;;;8.32;4.28;;;;;;;;;;5054709;28;20408;-87
2022/10/28 05:13:00;;;;;;;7.40;3.95;;;;;;;;;;5054829;28;20048;-88
2022/10/28 05:15:30;;;;;;;12.25;3.90;;;;;;;;;;5054653;28;20052;-88
2022/10/28 05:17:59;;;;;;;6.63;3.90;;;;;;;;;;5057870;28;20094;-87
2022/10/28 05:20:26;;;;;;;5.47;3.70;;;;;;;;;;5067810;28;20140;-88
2022/10/28 05:22:55;;;;;;;12.55;4.07;;;;;;;;;;5056400;28;20052;-86
2022/10/28 05:25:23;;;;;;;7.63;4.05;;;;;;;;;;5054388;28;20140;-88
2022/10/28 05:27:50;;;;;;;7.75;4.10;;;;;;;;;;5054049;28;20056;-88
2022/10/28 05:30:18;;;;;;;7.63;3.10;;;;;;;;;;5054466;28;20421;-88
2022/10/28 05:32:45;;;;;;;12.23;3.78;;;;;;;;;;5054365;28;20049;-88
2022/10/28 05:35:16;;;;;;;8.10;3.22;;;;;;;;;;5054021;28;20053;-88
2022/10/28 05:37:43;;;;;;;12.48;4.35;;;;;;;;;;5053567;28;20049;-88
2022/10/28 05:40:11;;;;;;;11.95;3.70;;;;;;;;;;5054337;28;20049;-88
2022/10/28 05:42:42;;;;;;;12.05;3.58;;;;;;;;;;5053976;28;20063;-87
2022/10/28 05:45:10;;;;;;;9.82;3.85;;;;;;;;;;5053893;28;20059;-88
2022/10/28 05:47:42;;;;;;;15.82;4.60;;;;;;;;;;5053604;28;20049;-88
2022/10/28 05:50:09;;;;;;;11.95;4.32;;;;;;;;;;5054540;28;20059;-86
2022/10/28 05:52:36;;;;;;;9.10;4.25;;;;;;;;;;5053816;28;20052;-88
2022/10/28 05:55:04;;;;;;;10.52;4.97;;;;;;;;;;5053655;28;20063;-88
2022/10/28 05:57:34;;;;;;;9.45;4.05;;;;;;;;;;5053857;28;20049;-88
2022/10/28 06:00:02;;;;;;;8.80;4.28;;;;;;;;;;5054837;28;20055;-88
2022/10/28 06:02:29;;;;;;;17.48;4.75;;;;;;;;;;5054608;28;20052;-87
2022/10/28 06:04:56;;;;;;;8.25;3.63;;;;;;;;;;5053181;28;20060;-87
2022/10/28 06:07:24;;;;;;;8.50;4.30;;;;;;;;;;5053701;28;20056;-87
2022/10/28 06:09:51;;;;;;;9.75;3.80;;;;;;;;;;5053264;28;20055;-88
2022/10/28 06:12:18;;;;;;;7.60;3.95;;;;;;;;;;5053513;28;20052;-88
2022/10/28 06:14:46;;;;;;;8.40;3.78;;;;;;;;;;5053242;28;20465;-87
2022/10/28 06:17:13;;;;;;;8.95;3.35;;;;;;;;;;5053541;28;20045;-88
2022/10/28 06:19:40;;;;;;;9.32;3.45;;;;;;;;;;5053316;28;20075;-88
2022/10/28 06:22:08;;;;;;;8.80;3.47;;;;;;;;;;5053386;28;20057;-89
2022/10/28 06:24:35;;;;;;;6.72;3.63;;;;;;;;;;5053208;28;20144;-88
2022/10/28 06:27:02;;;;;;;5.35;2.83;;;;;;;;;;5054640;28;20044;-88
2022/10/28 06:29:31;;;;;;;8.43;3.63;;;;;;;;;;5053536;28;20489;-89
2022/10/28 06:31:58;;;;;;;13.20;4.15;;;;;;;;;;5053300;28;20045;-87
2022/10/28 06:34:25;;;;;;;9.05;3.47;;;;;;;;;;5058092;28;20045;-87
2022/10/28 06:36:53;;;;;;;8.15;3.38;;;;;;;;;;5067217;28;20059;-87
2022/10/28 06:39:20;;;;;;;6.35;3.72;;;;;;;;;;5053728;28;20049;-88
2022/10/28 06:41:47;;;;;;;8.27;3.88;;;;;;;;;;5052733;28;20417;-88
2022/10/28 06:44:15;;;;;;;7.68;3.80;;;;;;;;;;5052161;28;20053;-88
2022/10/28 06:46:42;;;;;;;6.03;3.67;;;;;;;;;;5052796;28;20041;-90
2022/10/28 06:49:09;;;;;;;11.90;3.30;;;;;;;;;;5052032;28;20060;-91
2022/10/28 06:51:39;;;;;;;11.95;3.70;;;;;;;;;;5052377;28;20049;-88
2022/10/28 06:54:09;;;;;;;8.27;3.78;;;;;;;;;;5052578;28;20139;-90
2022/10/28 06:56:37;;;;;;;7.55;3.70;;;;;;;;;;5052758;28;20553;-88
2022/10/28 06:59:04;;;;;;;9.20;3.60;;;;;;;;;;5053036;28;20067;-90
2022/10/28 07:01:34;;;;;;;8.15;3.90;;;;;;;;;;5053592;28;20048;-88
2022/10/28 07:04:01;;;;;;;7.22;3.30;;;;;;;;;;5052022;28;20071;-88
2022/10/28 07:06:31;;;;;;;6.55;3.40;;;;;;;;;;5052729;28;20158;-88
2022/10/28 07:09:05;;;;;;;8.18;3.58;;;;;;;;;;5052482;28;20059;-89
2022/10/28 07:11:38;;;;;;;6.22;3.00;;;;;;;;;;5052184;28;20057;-87
2022/10/28 07:14:05;;;;;;;7.32;5.03;;;;;;;;;;5052519;28;20045;-89
2022/10/28 07:16:35;;;;;;;9.68;3.78;;;;;;;;;;5052429;28;20084;-89
2022/10/28 07:19:02;;;;;;;8.45;3.20;;;;;;;;;;5052566;28;20049;-88
2022/10/28 07:21:29;;;;;;;6.75;3.85;;;;;;;;;;5052421;28;20047;-88
2022/10/28 07:23:59;;;;;;;7.82;3.22;;;;;;;;;;5052415;28;20152;-88
2022/10/28 07:26:31;;;;;;;7.32;3.35;;;;;;;;;;5052254;28;20175;-88
2022/10/28 07:28:58;;;;;;;9.80;3.35;;;;;;;;;;5051143;28;20059;-89
2022/10/28 07:31:26;;;;;;;17.50;3.45;;;;;;;;;;5052834;28;20139;-88
2022/10/28 07:33:54;;;;;;;9.07;3.53;;;;;;;;;;5052173;28;20049;-88
2022/10/28 07:36:22;;;;;;;6.20;2.92;;;;;;;;;;5051361;28;20057;-88
2022/10/28 07:38:55;;;;;;;6.75;2.88;;;;;;;;;;5051070;28;20045;-89
2022/10/28 07:41:25;;;;;;;12.20;4.47;;;;;;;;;;5052440;28;20459;-88
2022/10/28 07:43:55;;;;;;;10.55;3.47;;;;;;;;;;5052436;28;20047;-87
2022/10/28 07:46:25;;;;;;;5.70;2.80;;;;;;;;;;5052112;28;20044;-87
2022/10/28 07:48:53;;;;;;;8.57;4.32;;;;;;;;;;5051863;28;20049;-89
2022/10/28 07:51:20;;;;;;;19.20;11.43;;;;;;;;;;5058758;28;20049;-88
2022/10/28 07:53:47;;;;;;;10.13;6.57;;;;;;;;;;5062822;28;20045;-88
2022/10/28 07:56:17;;;;;;;15.88;5.50;;;;;;;;;;5052340;28;20045;-89
2022/10/28 07:58:44;;;;;;;7.93;2.90;;;;;;;;;;5051987;28;20049;-89
2022/10/28 08:01:13;;;;;;;10.52;3.58;;;;;;;;;;5053382;28;20045;-88
2022/10/28 08:03:41;;;;;;;15.40;5.45;;;;;;;;;;5056046;28;20049;-88
2022/10/28 08:06:10;;;;;;;9.93;3.47;;;;;;;;;;5055887;28;20071;-88
2022/10/28 08:08:39;;;;;;;8.05;3.10;;;;;;;;;;5055678;28;20049;-88
2022/10/28 08:11:17;;;;;;;5.45;2.78;;;;;;;;;;5055794;28;20051;-88
2022/10/28 08:13:45;;;;;;;6.97;2.40;;;;;;;;;;5055857;28;20053;-88
2022/10/28 08:16:12;;;;;;;10.65;2.72;;;;;;;;;;5055383;28;20052;-88
2022/10/28 08:18:49;;;;;;;10.70;2.75;;;;;;;;;;5053789;28;20083;-87
2022/10/28 08:21:16;;;;;;;6.63;2.60;;;;;;;;;;5067248;28;20056;-86
2022/10/28 08:23:45;;;;;;;9.82;8.23;;;;;;;;;;5073881;28;20059;-87
2022/10/28 08:26:13;;;;;;;13.45;8.27;;;;;;;;;;5068150;28;20049;-87
2022/10/28 08:28:40;;;;;;;10.85;3.20;;;;;;;;;;5055322;28;20060;-88
2022/10/28 08:31:08;;;;;;;6.45;2.35;;;;;;;;;;5060854;28;20052;-87
2022/10/28 08:33:37;;;;;;;9.23;2.80;;;;;;;;;;5075195;28;20076;-87
2022/10/28 08:36:05;;;;;;;9.48;2.80;;;;;;;;;;5071786;28;20111;-88
2022/10/28 08:38:32;;;;;;;6.57;2.40;;;;;;;;;;5069294;28;20052;-87
2022/10/28 08:41:01;;;;;;;9.40;2.55;;;;;;;;;;5071531;28;20119;-88
2022/10/28 08:43:47;;;;;;;7.50;3.03;;;;;;;;;;5055077;28;20095;-87
2022/10/28 08:46:42;;;;;;;7.43;2.30;;;;;;;;;;5061361;28;20480;-88
2022/10/28 08:49:12;;;;;;;9.07;2.70;;;;;;;;;;5073834;28;20597;-87
2022/10/28 08:51:42;;;;;;;8.57;3.25;;;;;;;;;;5073744;28;20052;-86
2022/10/28 08:54:16;;;;;;;9.25;2.53;;;;;;;;;;5074127;28;20045;-86
2022/10/28 08:56:47;;;;;;;5.53;2.55;;;;;;;;;;5073265;28;20143;-86
2022/10/28 08:59:19;;;;;;;4.32;2.40;;;;;;;;;;5073563;28;20067;-87
2022/10/28 09:01:51;;;;;;;7.07;2.53;;;;;;;;;;5065976;28;20082;-86
2022/10/28 09:04:35;;;;;;;11.23;2.80;;;;;;;;;;5053753;28;20075;-87
2022/10/28 09:07:05;;;;;;;13.38;2.67;;;;;;;;;;5063082;28;20049;-87
2022/10/28 09:09:35;;;;;;;7.13;2.58;;;;;;;;;;5070645;28;20044;-87
2022/10/28 09:12:22;;;;;;;5.07;2.53;;;;;;;;;;5066546;28;20048;-86
2022/10/28 09:14:49;;;;;;;7.47;2.10;;;;;;;;;;5061674;28;20076;-88
2022/10/28 09:17:20;;;;;;;3.33;2.35;;;;;;;;;;5055457;28;20053;-87
2022/10/28 09:20:06;;;;;;;10.25;2.50;;;;;;;;;;5055194;28;20064;-85
2022/10/28 09:22:33;;;;;;;8.27;2.55;;;;;;;;;;5066396;28;20367;-87
2022/10/28 09:25:05;;;;;;;8.95;2.97;;;;;;;;;;5071069;28;20493;-86
2022/10/28 09:27:39;;;;;;;8.57;2.88;;;;;;;;;;5070478;28;20045;-88
2022/10/28 09:30:22;;;;;;;8.25;3.03;;;;;;;;;;5070693;28;20511;-88
2022/10/28 09:32:58;;;;;;;11.90;2.67;;;;;;;;;;5070523;28;20048;-87
2022/10/28 09:35:30;;;;;;;5.88;2.55;;;;;;;;;;5071153;28;20127;-88
2022/10/28 09:38:07;;;;;;;8.23;2.22;;;;;;;;;;5072436;28;20041;-87
2022/10/28 09:40:38;;;;;;;5.75;2.20;;;;;;;;;;5073284;28;20067;-86
2022/10/28 09:43:09;;;;;;;6.45;2.50;;;;;;;;;;5073559;28;20051;-84
2022/10/28 09:45:39;;;;;;;2.97;1.88;;;;;;;;;;5073732;28;20515;-85
2022/10/28 09:48:22;;;;;;;7.93;2.53;;;;;;;;;;5073241;28;20045;-84
2022/10/28 09:50:51;;;;;;;13.15;2.22;;;;;;;;;;5073477;28;20330;-85
2022/10/28 09:53:40;;;;;;;7.90;1.92;;;;;;;;;;5073326;28;20045;-83
2022/10/28 09:56:07;;;;;;;9.85;2.22;;;;;;;;;;5073305;28;20412;-86
2022/10/28 09:58:35;;;;;;;3.58;1.75;;;;;;;;;;5053408;28;20049;-85
2022/10/28 10:01:03;;;;;;;10.50;1.92;;;;;;;;;;5053546;28;20053;-84
2022/10/28 10:03:31;;;;;;;4.50;1.90;;;;;;;;;;5073114;28;20040;-88
2022/10/28 10:06:02;;;;;;;8.20;1.88;;;;;;;;;;5073462;28;20058;-88
2022/10/28 10:08:36;;;;;;;9.68;2.70;;;;;;;;;;5055136;28;20045;-90
2022/10/28 10:11:14;;;;;;;8.20;2.22;;;;;;;;;;5053128;28;20048;-87
2022/10/28 10:13:43;;;;;;;8.65;2.25;;;;;;;;;;5056527;28;20041;-93
2022/10/28 10:16:16;;;;;;;10.00;2.17;;;;;;;;;;5073065;28;20059;-85
2022/10/28 10:18:47;;;;;;;;;;;;;;;;;;5053496;28;20060;-86
2022/10/28 10:21:15;;;;;;;7.15;2.10;;;;;;;;;;5052824;28;19920;-84
2022/10/28 10:23:42;;;;;;;6.25;2.20;;;;;;;;;;5053180;28;20056;-84
2022/10/28 10:26:18;;;;;;;7.65;2.05;;;;;;;;;;5066706;28;20091;-83
2022/10/28 10:28:47;;;;;;;13.75;2.38;;;;;;;;;;5053371;28;20513;-84
2022/10/28 10:31:20;;;;;;;16.60;2.50;;;;;;;;;;5052759;28;20049;-84
2022/10/28 10:33:49;;;;;;;6.35;1.67;;;;;;;;;;5052830;28;20056;-85
2022/10/28 10:36:19;;;;;;;5.32;1.70;;;;;;;;;;5053524;28;20049;-84
2022/10/28 10:38:50;;;;;;;7.68;2.10;;;;;;;;;;5052634;28;20045;-84
2022/10/28 10:41:36;;;;;;;12.00;2.28;;;;;;;;;;5052510;28;20048;-84
2022/10/28 10:44:26;;;;;;;7.55;2.13;;;;;;;;;;5052584;28;20049;-84
2022/10/28 10:46:59;;;;;;;7.32;1.90;;;;;;;;;;5052770;28;20053;-85
2022/10/28 10:49:37;;;;;;;8.15;2.13;;;;;;;;;;5052910;28;20059;-86
2022/10/28 10:52:37;;;;;;;9.18;2.10;;;;;;;;;;5055307;28;20424;-84
2022/10/28 10:55:11;;;;;;;8.98;1.98;;;;;;;;;;5032845;28;20060;-84
2022/10/28 10:57:46;;;;;;;;;;;;;;;;;;5053108;28;20052;-84
2022/10/28 11:00:22;;;;;;;8.32;2.13;;;;;;;;;;5053133;28;19921;-86
2022/10/28 11:02:50;;;;;;;8.57;2.58;;;;;;;;;;5063906;28;20099;-88
2022/10/28 11:05:22;;;;;;;7.45;2.58;;;;;;;;;;5072259;28;20126;-85
2022/10/28 11:08:03;;;;;;;13.40;3.28;;;;;;;;;;5061502;28;20052;-86
2022/10/28 11:10:33;;;;;;;7.40;2.40;;;;;;;;;;5053145;28;20103;-86
2022/10/28 11:13:25;;;;;;;13.77;2.45;;;;;;;;;;5051887;28;20420;-85
2022/10/28 11:16:05;;;;;;;7.80;2.85;;;;;;;;;;5052799;28;20048;-85
2022/10/28 11:18:43;;;;;;;22.15;3.67;;;;;;;;;;5066290;28;20044;-85
2022/10/28 11:21:21;;;;;;;12.85;3.28;;;;;;;;;;5052327;28;20538;-85
2022/10/28 11:23:55;;;;;;;14.05;3.05;;;;;;;;;;5070138;28;20052;-86
2022/10/28 11:26:25;;;;;;;11.00;2.78;;;;;;;;;;5072794;28;20402;-84
2022/10/28 11:28:55;;;;;;;10.55;3.20;;;;;;;;;;5072801;28;20051;-87
2022/10/28 11:31:39;;;;;;;8.00;2.67;;;;;;;;;;5072431;28;20056;-88
2022/10/28 11:34:20;;;;;;;6.93;2.17;;;;;;;;;;5072297;28;20390;-85
2022/10/28 11:37:09;;;;;;;15.38;2.63;;;;;;;;;;5074345;28;20502;-84
2022/10/28 11:39:53;;;;;;;9.70;2.40;;;;;;;;;;5057153;28;20049;-85
2022/10/28 11:42:29;;;;;;;8.00;2.30;;;;;;;;;;5074760;28;20061;-84
2022/10/28 11:44:57;;;;;;;;;;;;;;;;;;5079029;28;20459;-86
2022/10/28 11:47:45;;;;;;;5.80;2.20;;;;;;;;;;5076933;28;20279;-84
2022/10/28 11:50:20;;;;;;;20.63;2.90;;;;;;;;;;5060868;28;20053;-86
2022/10/28 11:52:57;;;;;;;9.50;2.65;;;;;;;;;;5063401;28;20044;-85
2022/10/28 11:55:24;;;;;;;10.93;2.47;;;;;;;;;;5076263;28;20056;-84
2022/10/28 11:58:05;;;;;;;9.77;2.30;;;;;;;;;;5067451;28;20524;-85
2022/10/28 12:00:41;;;;;;;10.52;2.80;;;;;;;;;;5055908;28;20170;-84
2022/10/28 12:03:21;;;;;;;9.90;2.58;;;;;;;;;;5066458;28;20179;-85
2022/10/28 12:06:01;;;;;;;13.57;2.65;;;;;;;;;;5077084;28;20135;-85
2022/10/28 12:08:31;;;;;;;5.78;2.08;;;;;;;;;;5063933;28;20481;-86
2022/10/28 12:10:58;;;;;;;9.57;2.38;;;;;;;;;;5055059;28;20061;-83
2022/10/28 12:13:31;;;;;;;11.75;2.63;;;;;;;;;;5067031;28;20106;-84
2022/10/28 12:16:05;;;;;;;9.27;2.55;;;;;;;;;;5055214;28;20053;-85
2022/10/28 12:18:32;;;;;;;;;;;;;;;;;;5067967;28;20052;-86
2022/10/28 12:21:11;;;;;;;12.13;2.90;;;;;;;;;;5075820;28;19920;-85
2022/10/28 12:23:41;;;;;;;14.63;2.97;;;;;;;;;;5074168;28;20079;-85
2022/10/28 12:26:12;;;;;;;6.75;2.05;;;;;;;;;;5075579;28;20048;-84
2022/10/28 12:28:42;;;;;;;12.10;2.78;;;;;;;;;;5062669;28;20508;-85
2022/10/28 12:31:18;;;;;;;14.55;4.70;;;;;;;;;;5055103;28;20048;-85
2022/10/28 12:33:47;;;;;;;19.77;3.30;;;;;;;;;;5068344;28;20049;-85
2022/10/28 12:36:24;;;;;;;20.77;3.83;;;;;;;;;;5074746;28;20056;-85
2022/10/28 12:38:55;;;;;;;8.63;2.30;;;;;;;;;;5060747;28;20045;-85
2022/10/28 12:41:29;;;;;;;7.72;1.83;;;;;;;;;;5054835;28;20053;-85
2022/10/28 12:44:05;;;;;;;11.75;2.15;;;;;;;;;;5056293;28;20516;-83
2022/10/28 12:46:32;;;;;;;7.15;2.10;;;;;;;;;;5060045;28;20059;-84
2022/10/28 12:49:09;;;;;;;11.45;2.25;;;;;;;;;;5073053;28;20048;-85
2022/10/28 12:51:39;;;;;;;12.73;2.55;;;;;;;;;;5074965;28;20055;-85
2022/10/28 12:54:25;;;;;;;9.05;2.58;;;;;;;;;;5059493;28;20508;-85
2022/10/28 12:57:05;;;;;;;8.13;2.22;;;;;;;;;;5054667;28;20049;-86
2022/10/28 12:59:38;;;;;;;13.90;3.50;;;;;;;;;;5065523;28;20061;-86
2022/10/28 13:02:13;;;;;;;16.50;3.83;;;;;;;;;;5055145;28;20056;-84
2022/10/28 13:04:40;;;;;;;18.73;3.20;;;;;;;;;;5053980;28;20051;-85
2022/10/28 13:07:10;;;;;;;10.02;2.60;;;;;;;;;;5054213;28;20073;-84
2022/10/28 13:09:56;;;;;;;10.25;2.25;;;;;;;;;;5054289;28;20049;-85
2022/10/28 13:12:35;;;;;;;9.35;2.22;;;;;;;;;;5054603;28;20500;-85
2022/10/28 13:15:15;;;;;;;8.73;2.05;;;;;;;;;;5069070;28;20048;-85
2022/10/28 13:17:42;;;;;;;9.68;2.00;;;;;;;;;;5074873;28;20056;-86
2022/10/28 13:20:19;;;;;;;10.80;2.60;;;;;;;;;;5060313;28;20041;-84
2022/10/28 13:23:11;;;;;;;14.77;2.40;;;;;;;;;;5053847;28;20436;-85
2022/10/28 13:25:58;;;;;;;10.02;1.90;;;;;;;;;;5055330;28;20049;-84
2022/10/28 13:28:32;;;;;;;15.45;2.60;;;;;;;;;;5053749;28;20413;-85
2022/10/28 13:31:04;;;;;;;12.02;2.55;;;;;;;;;;5054279;28;20057;-86
2022/10/28 13:33:35;;;;;;;12.18;2.80;;;;;;;;;;5054777;28;20409;-86
2022/10/28 13:36:16;;;;;;;14.07;2.58;;;;;;;;;;5053688;28;20390;-85
2022/10/28 13:38:48;;;;;;;13.52;2.55;;;;;;;;;;5064361;28;20052;-86
2022/10/28 13:41:26;;;;;;;8.35;3.25;;;;;;;;;;5073500;28;20046;-86
2022/10/28 13:43:54;;;;;;;10.55;2.80;;;;;;;;;;5073239;28;20052;-86
2022/10/28 13:46:42;;;;;;;8.13;2.28;;;;;;;;;;5073497;28;20041;-85
2022/10/28 13:49:23;;;;;;;7.30;2.50;;;;;;;;;;5068188;28;20515;-85
2022/10/28 13:51:51;;;;;;;5.30;2.38;;;;;;;;;;5053494;28;20081;-84
2022/10/28 13:54:25;;;;;;;15.10;2.70;;;;;;;;;;5066746;28;20075;-85
2022/10/28 13:56:54;;;;;;;20.27;3.80;;;;;;;;;;5073582;28;20393;-85
2022/10/28 13:59:26;;;;;;;9.10;2.42;;;;;;;;;;5058471;28;20059;-86
2022/10/28 14:01:54;;;;;;;6.63;2.55;;;;;;;;;;5054600;28;20048;-84
2022/10/28 14:04:41;;;;;;;10.65;2.35;;;;;;;;;;5068874;28;20067;-86
2022/10/28 14:07:11;;;;;;;10.75;2.58;;;;;;;;;;5073198;28;20071;-85
2022/10/28 14:09:42;;;;;;;14.88;2.45;;;;;;;;;;5072856;28;20049;-85
2022/10/28 14:12:12;;;;;;;20.02;3.00;;;;;;;;;;5073017;28;20143;-86
2022/10/28 14:14:50;;;;;;;15.60;2.85;;;;;;;;;;5069019;28;20048;-86
2022/10/28 14:17:22;;;;;;;9.60;2.30;;;;;;;;;;5088632;28;20072;-85
2022/10/28 14:19:53;;;;;;;7.63;1.93;;;;;;;;;;5063889;28;20507;-86
2022/10/28 14:22:47;;;;;;;9.55;2.28;;;;;;;;;;5053163;28;20048;-85
2022/10/28 14:25:34;;;;;;;9.93;1.98;;;;;;;;;;5034808;28;20098;-85
2022/10/28 14:28:01;;;;;;;9.48;2.35;;;;;;;;;;5053569;28;20108;-84
2022/10/28 14:30:30;;;;;;;4.63;1.83;;;;;;;;;;5073665;28;20051;-86
2022/10/28 14:33:01;;;;;;;7.07;2.13;;;;;;;;;;5072527;28;20063;-86
2022/10/28 14:35:37;;;;;;;7.47;2.25;;;;;;;;;;5055268;28;20512;-87
2022/10/28 14:38:33;;;;;;;9.07;1.98;;;;;;;;;;5053817;28;20059;-86
2022/10/28 14:41:05;;;;;;;10.57;1.98;;;;;;;;;;5072897;28;20057;-86
2022/10/28 14:43:34;;;;;;;15.05;2.90;;;;;;;;;;5072434;28;20055;-86
2022/10/28 14:46:17;;;;;;;11.40;2.33;;;;;;;;;;5073070;28;20048;-87
2022/10/28 14:48:46;;;;;;;6.47;2.20;;;;;;;;;;5071153;28;20048;-87
2022/10/28 14:51:21;;;;;;;8.57;2.25;;;;;;;;;;5053268;28;20071;-86
2022/10/28 14:53:51;;;;;;;6.85;2.00;;;;;;;;;;5059472;28;20046;-85
2022/10/28 14:56:27;;;;;;;3.78;2.13;;;;;;;;;;5072450;28;20131;-84
2022/10/28 14:58:58;;;;;;;8.50;2.15;;;;;;;;;;5072155;28;20077;-86
2022/10/28 15:01:26;;;;;;;9.82;2.17;;;;;;;;;;5072539;28;20338;-85
2022/10/28 15:03:57;;;;;;;9.95;1.70;;;;;;;;;;5071978;28;20048;-85
2022/10/28 15:06:26;;;;;;;6.55;2.55;;;;;;;;;;5072051;28;20056;-87
2022/10/28 15:08:56;;;;;;;6.50;2.35;;;;;;;;;;5066607;28;20049;-84